Time;durP1;ratioP1;P1;durP2;ratioP2;P2;SDS_P1;SDS_P2;PMS_P1;PMS_P2;Temp;Humidity;BMP_temperature;BMP_pressure;BME280_temperature;BME280_humidity;BME280_pressure;Samples;Min_cycle;Max_cycle;Signal;HPM_P1;HPM_P2
2022/05/20 00:01:14;;;;;;;7.47;4.38;;;;;;;21.92;50.15;102150.63;4968428;28;20097;-83
2022/05/20 00:03:42;;;;;;;8.40;4.10;;;;;;;21.97;50.23;102163.63;4969996;28;20109;-84
2022/05/20 00:06:09;;;;;;;5.88;4.00;;;;;;;21.72;50.33;102125.84;4951038;28;20082;-81
2022/05/20 00:08:36;;;;;;;9.20;4.63;;;;;;;21.38;50.56;102082.81;4950288;28;20461;-83
2022/05/20 00:11:02;;;;;;;10.00;4.40;;;;;;;21.77;50.81;102133.41;4950794;28;20106;-82
2022/05/20 00:13:29;;;;;;;6.18;3.97;;;;;;;21.76;50.71;102137.13;4950612;28;20062;-83
2022/05/20 00:15:56;;;;;;;6.57;3.97;;;;;;;21.70;50.42;102114.34;4950692;28;20137;-81
2022/05/20 00:18:24;;;;;;;11.55;3.78;;;;;;;21.70;50.56;102100.84;4950844;28;20168;-81
2022/05/20 00:20:51;;;;;;;6.97;4.15;;;;;;;22.13;50.23;102165.41;4967803;28;20236;-82
2022/05/20 00:23:17;;;;;;;4.95;3.47;;;;;;;21.97;50.30;102167.16;4968084;28;20803;-82
2022/05/20 00:25:47;;;;;;;9.20;4.00;;;;;;;21.83;50.95;102165.16;4950820;28;20599;-81
2022/05/20 00:28:27;;;;;;;7.95;3.97;;;;;;;20.88;51.51;102011.00;4950682;28;20078;-82
2022/05/20 00:31:00;;;;;;;10.00;4.10;;;;;;;21.55;51.42;102130.44;4950838;28;20138;-82
2022/05/20 00:33:28;;;;;;;7.85;3.88;;;;;;;21.55;51.37;102125.03;4967902;28;20054;-82
2022/05/20 00:35:55;;;;;;;7.30;4.07;;;;;;;21.58;51.41;102117.56;4951611;28;20258;-84
2022/05/20 00:38:22;;;;;;;7.85;3.78;;;;;;;21.81;51.23;102166.34;4956150;28;20046;-81
2022/05/20 00:40:51;;;;;;;8.20;3.60;;;;;;;21.71;51.33;102150.34;4969768;28;20117;-82
2022/05/20 00:43:24;;;;;;;5.40;3.38;;;;;;;21.42;51.60;102105.78;4947036;29;20078;-82
2022/05/20 00:45:57;;;;;;;6.20;3.30;;;;;;;21.66;51.59;102158.94;4947078;29;20059;-82
2022/05/20 00:48:24;;;;;;;6.38;3.97;;;;;;;21.63;51.59;102159.31;4931161;29;20481;-82
2022/05/20 00:51:20;;;;;;;10.18;3.80;;;;;;;21.18;51.94;102085.03;4947153;29;20086;-81
2022/05/20 00:53:53;;;;;;;6.25;4.00;;;;;;;21.58;51.62;102161.69;4950190;28;20050;-81
2022/05/20 00:56:24;;;;;;;6.90;4.05;;;;;;;21.29;51.88;102110.88;4950533;28;20076;-82
2022/05/20 00:58:52;;;;;;;5.88;3.50;;;;;;;21.50;52.15;102159.81;4949947;28;20046;-82
2022/05/20 01:01:19;;;;;;;7.07;3.80;;;;;;;21.60;52.18;102172.28;4949814;28;20050;-82
2022/05/20 01:03:47;;;;;;;7.80;3.92;;;;;;;21.45;52.23;102140.56;4949937;28;20046;-83
2022/05/20 01:06:14;;;;;;;8.23;4.10;;;;;;;21.33;52.14;102125.69;4950192;28;20576;-81
2022/05/20 01:08:41;;;;;;;5.35;4.57;;;;;;;21.58;52.15;102161.69;4950151;28;20062;-82
2022/05/20 01:11:08;;;;;;;6.75;4.40;;;;;;;21.25;52.37;102117.59;4949980;28;20046;-82
2022/05/20 01:13:35;;;;;;;7.80;4.50;;;;;;;21.53;52.97;102175.69;4949977;28;20125;-81
2022/05/20 01:16:07;;;;;;;5.40;4.03;;;;;;;21.37;52.91;102159.47;4949834;28;20541;-80
2022/05/20 01:18:37;;;;;;;5.80;3.38;;;;;;;21.32;52.88;102156.44;4949992;28;20051;-82
2022/05/20 01:21:04;;;;;;;5.32;3.95;;;;;;;21.27;52.90;102148.00;4949938;28;20105;-83
2022/05/20 01:23:34;;;;;;;7.15;3.85;;;;;;;21.16;52.80;102135.66;4950060;28;20105;-83
2022/05/20 01:26:01;;;;;;;6.70;3.60;;;;;;;21.27;52.68;102158.81;4949853;28;20055;-83
2022/05/20 01:28:30;;;;;;;16.60;4.22;;;;;;;21.42;52.17;102173.34;4950252;28;20142;-82
2022/05/20 01:31:10;;;;;;;6.72;3.95;;;;;;;21.41;52.52;102177.06;4949849;28;20136;-82
2022/05/20 01:33:43;;;;;;;10.13;4.03;;;;;;;21.36;52.12;102168.59;4966813;28;20046;-82
2022/05/20 01:36:16;;;;;;;5.00;3.60;;;;;;;21.35;51.95;102161.47;4970248;28;20105;-82
2022/05/20 01:38:43;;;;;;;5.97;4.20;;;;;;;21.34;52.21;102165.22;4953648;28;20105;-83
2022/05/20 01:41:12;;;;;;;14.48;4.32;;;;;;;21.37;52.11;102155.94;4970994;28;20051;-82
2022/05/20 01:44:11;;;;;;;5.75;3.55;;;;;;;21.48;51.81;102172.66;4950571;28;20090;-83
2022/05/20 01:46:43;;;;;;;6.35;3.83;;;;;;;21.39;52.08;102170.97;4950600;29;20088;-82
2022/05/20 01:49:31;;;;;;;8.63;3.75;;;;;;;20.26;51.61;101981.78;4952536;29;20050;-82
2022/05/20 01:52:10;;;;;;;10.50;3.65;;;;;;;21.41;51.89;102177.06;4953562;28;20047;-83
2022/05/20 01:54:46;;;;;;;6.70;3.70;;;;;;;21.39;52.25;102175.50;4970691;28;20054;-82
2022/05/20 01:57:20;;;;;;;7.57;3.72;;;;;;;20.60;52.43;102048.25;4953620;28;20055;-82
2022/05/20 01:59:51;;;;;;;5.97;3.83;;;;;;;21.40;52.58;102182.63;4953206;28;20078;-82
2022/05/20 02:02:24;;;;;;;6.72;4.20;;;;;;;21.42;52.37;102176.03;4941584;29;20055;-82
2022/05/20 02:05:22;;;;;;;12.93;7.20;;;;;;;21.25;52.55;102155.41;4931337;29;20055;-82
2022/05/20 02:07:57;;;;;;;9.07;4.60;;;;;;;21.15;52.84;102160.16;4930294;29;20099;-82
2022/05/20 02:10:43;;;;;;;4.85;3.75;;;;;;;21.16;53.41;102161.81;4931036;29;20106;-82
2022/05/20 02:13:15;;;;;;;5.57;4.07;;;;;;;21.26;53.43;102176.00;4930999;29;20101;-83
2022/05/20 02:15:50;;;;;;;5.35;3.95;;;;;;;20.97;53.64;102130.59;4931080;29;20083;-81
2022/05/20 02:18:27;;;;;;;6.03;3.80;;;;;;;21.11;53.58;102155.06;4930993;29;20059;-81
2022/05/20 02:20:59;;;;;;;7.70;3.50;;;;;;;21.10;53.51;102164.19;4931122;29;20051;-81
2022/05/20 02:23:31;;;;;;;7.50;4.03;;;;;;;21.30;53.30;102174.66;4931029;29;20055;-82
2022/05/20 02:26:03;;;;;;;7.80;3.83;;;;;;;21.28;53.39;102165.88;4931794;29;20055;-81
2022/05/20 02:28:38;;;;;;;6.78;3.70;;;;;;;21.07;54.00;102147.50;4930922;29;20055;-81
2022/05/20 02:31:09;;;;;;;6.28;3.75;;;;;;;20.87;53.75;102126.19;4932585;29;20118;-81
2022/05/20 02:33:36;;;;;;;8.52;4.25;;;;;;;21.07;53.93;102164.53;4931245;29;20441;-82
2022/05/20 02:36:22;;;;;;;6.07;3.92;;;;;;;21.10;54.04;102168.75;4934688;29;20047;-81
2022/05/20 02:38:49;;;;;;;6.50;4.07;;;;;;;20.94;54.26;102160.63;4945060;29;20055;-81
2022/05/20 02:41:16;;;;;;;6.72;4.35;;;;;;;21.03;54.06;102157.78;4942471;29;20048;-82
2022/05/20 02:43:43;;;;;;;4.25;3.78;;;;;;;21.06;54.22;102176.31;4948388;29;20047;-82
2022/05/20 02:46:12;;;;;;;7.07;4.15;;;;;;;20.80;54.10;102146.78;4954573;28;20066;-82
2022/05/20 02:48:39;;;;;;;5.63;3.85;;;;;;;20.69;54.18;102150.63;4955899;28;20035;-82
2022/05/20 02:51:06;;;;;;;6.85;4.30;;;;;;;20.61;53.92;102139.84;4932862;29;20855;-82
2022/05/20 02:53:32;;;;;;;8.75;4.90;;;;;;;20.66;54.04;102161.78;4948000;28;20051;-83
2022/05/20 02:56:00;;;;;;;7.38;4.03;;;;;;;20.32;54.09;102115.13;4931114;29;20438;-82
2022/05/20 03:04:10;;;;;;;6.88;4.68;;;;;;;20.61;53.66;102180.31;4954291;29;20055;-82
2022/05/20 03:06:42;;;;;;;8.73;4.85;;;;;;;20.48;54.28;102179.88;4954169;28;20074;-83
2022/05/20 03:09:11;;;;;;;9.30;5.93;;;;;;;19.79;53.57;102099.06;4949428;29;20101;-82
2022/05/20 03:11:41;;;;;;;16.52;6.85;;;;;;;19.94;53.75;102137.03;4949488;29;20114;-82
2022/05/20 03:14:10;;;;;;;9.63;6.40;;;;;;;19.49;53.34;102080.66;4950738;28;20085;-82
2022/05/20 03:16:38;;;;;;;10.23;6.28;;;;;;;19.95;53.65;102173.78;4949050;29;20560;-82
2022/05/20 03:19:05;;;;;;;12.93;6.63;;;;;;;19.51;53.80;102105.59;4948987;29;20059;-82
2022/05/20 03:21:34;;;;;;;11.60;7.32;;;;;;;19.48;54.05;102136.38;4949073;28;20051;-82
2022/05/20 03:24:01;;;;;;;12.55;6.65;;;;;;;19.80;54.00;102194.22;4949074;29;20049;-82
2022/05/20 03:26:29;;;;;;;13.30;7.32;;;;;;;19.61;54.21;102171.84;4948934;28;20066;-82
2022/05/20 03:28:59;;;;;;;9.65;6.70;;;;;;;19.30;54.01;102128.34;4950296;28;20286;-82
2022/05/20 03:31:26;;;;;;;6.80;5.30;;;;;;;19.70;54.15;102199.69;4948707;29;20102;-82
2022/05/20 03:33:53;;;;;;;11.68;5.78;;;;;;;19.39;54.39;102161.56;4948926;29;20050;-82
2022/05/20 03:36:21;;;;;;;7.80;5.65;;;;;;;19.46;54.56;102173.41;4948536;29;20466;-82
2022/05/20 03:38:47;;;;;;;8.10;5.68;;;;;;;19.46;54.62;102181.47;4949544;28;20477;-82
2022/05/20 03:41:14;;;;;;;11.32;6.07;;;;;;;19.58;54.82;102209.00;4948245;28;20051;-82
2022/05/20 03:43:41;;;;;;;12.35;6.03;;;;;;;19.07;54.69;102116.38;4945069;29;20115;-81
2022/05/20 03:46:08;;;;;;;13.65;5.85;;;;;;;19.53;54.69;102187.09;4929449;29;20079;-82
2022/05/20 03:48:34;;;;;;;8.30;5.97;;;;;;;19.68;54.39;102208.94;4929034;29;20058;-82
2022/05/20 03:51:13;;;;;;;8.18;5.63;;;;;;;19.63;54.65;102204.00;4928962;29;20494;-82
2022/05/20 03:53:40;;;;;;;7.35;4.85;;;;;;;19.65;54.74;102210.06;4941212;29;20309;-82
2022/05/20 03:56:07;;;;;;;7.25;5.90;;;;;;;19.67;54.58;102213.47;4945212;29;20151;-82
2022/05/20 03:58:36;;;;;;;8.73;6.10;;;;;;;19.35;54.60;102155.66;4929992;29;20051;-82
2022/05/20 04:03:51;;;;;;;10.50;5.60;;;;;;;19.39;54.58;102178.59;4930399;29;20082;-82
2022/05/20 04:06:18;;;;;;;7.95;5.80;;;;;;;19.62;54.71;102216.63;4930047;29;20095;-81
2022/05/20 04:08:45;;;;;;;6.45;5.78;;;;;;;19.69;54.32;102216.88;4944963;29;20122;-82
2022/05/20 04:11:11;;;;;;;6.93;5.78;;;;;;;19.68;54.37;102215.16;4945208;29;20052;-82
2022/05/20 04:13:39;;;;;;;6.97;4.93;;;;;;;19.62;54.41;102205.84;4945067;29;20056;-82
2022/05/20 04:16:08;;;;;;;6.95;6.25;;;;;;;19.58;54.58;102209.84;4944732;29;20138;-83
2022/05/20 04:18:35;;;;;;;7.15;5.30;;;;;;;19.60;55.12;102218.63;4930051;29;20474;-82
2022/05/20 04:21:02;;;;;;;7.57;5.95;;;;;;;19.40;55.04;102191.03;4945753;29;20056;-81
2022/05/20 04:23:28;;;;;;;7.50;5.70;;;;;;;19.52;55.08;102209.66;4944790;29;20058;-83
2022/05/20 04:25:55;;;;;;;7.30;5.15;;;;;;;19.62;55.46;102231.94;4944839;29;20048;-83
2022/05/20 04:28:22;;;;;;;6.30;5.43;;;;;;;19.59;55.76;102226.88;4944556;29;20056;-82
2022/05/20 04:30:58;;;;;;;8.77;5.60;;;;;;;18.41;56.17;102053.88;4945263;29;20486;-82
2022/05/20 04:33:33;;;;;;;13.20;5.75;;;;;;;18.79;55.81;102092.28;4944629;29;20050;-82
2022/05/20 04:36:00;;;;;;;12.55;5.82;;;;;;;19.06;55.31;102126.31;4929980;29;20070;-82
2022/05/20 04:38:27;;;;;;;12.45;5.65;;;;;;;19.64;55.55;102227.25;4943918;29;20111;-82
2022/05/20 04:49:09;;;;;;;6.70;5.95;;;;;;;19.53;55.75;102195.16;4952554;29;20050;-82
2022/05/20 04:51:39;;;;;;;15.90;6.20;;;;;;;19.75;55.38;102221.63;4948240;28;20145;-82
2022/05/20 04:56:55;;;;;;;12.60;6.88;;;;;;;19.85;55.16;102217.00;4948113;29;20051;-81
2022/05/20 04:59:24;;;;;;;13.52;6.70;;;;;;;20.10;55.55;102254.91;4946505;29;20058;-83
2022/05/20 05:01:51;;;;;;;13.02;6.22;;;;;;;20.07;54.67;102220.13;4951747;28;20122;-82
2022/05/20 05:04:20;;;;;;;9.18;5.82;;;;;;;19.91;54.02;102160.78;4949707;28;20054;-81
2022/05/20 05:06:47;;;;;;;10.43;5.75;;;;;;;20.26;53.48;102225.31;4949315;28;20113;-82
2022/05/20 05:09:15;;;;;;;11.32;5.95;;;;;;;20.41;53.78;102238.19;4949786;28;20066;-82
2022/05/20 05:11:42;;;;;;;10.73;6.65;;;;;;;20.50;53.92;102254.25;4970336;28;20061;-82
2022/05/20 05:14:10;;;;;;;7.18;5.72;;;;;;;20.53;53.99;102246.84;4953557;28;20054;-82
2022/05/20 05:16:38;;;;;;;9.70;5.68;;;;;;;20.48;53.93;102234.66;4953547;28;20090;-82
2022/05/20 05:19:06;;;;;;;7.40;5.80;;;;;;;20.22;53.91;102188.91;4953062;28;20493;-81
2022/05/20 05:21:33;;;;;;;8.93;5.53;;;;;;;20.61;53.65;102236.97;4953369;28;20081;-83
2022/05/20 05:24:00;;;;;;;9.68;6.22;;;;;;;20.38;53.53;102187.28;4953497;28;20063;-82
2022/05/20 05:26:34;;;;;;;8.25;5.72;;;;;;;20.87;53.18;102260.31;4970413;28;20097;-82
2022/05/20 05:29:04;;;;;;;7.97;5.30;;;;;;;20.18;53.20;102139.00;4953114;28;20567;-82
2022/05/20 05:31:31;;;;;;;6.22;5.38;;;;;;;20.73;52.69;102225.84;4953201;28;20051;-82
2022/05/20 05:33:58;;;;;;;9.10;5.30;;;;;;;20.97;52.58;102263.75;4970679;28;20054;-82
2022/05/20 05:36:25;;;;;;;10.43;5.00;;;;;;;20.85;52.71;102240.75;4970293;28;20057;-81
2022/05/20 05:38:52;;;;;;;9.48;5.20;;;;;;;20.96;52.58;102253.94;4970112;28;20517;-80
2022/05/20 05:41:20;;;;;;;11.10;5.80;;;;;;;21.08;52.50;102255.31;4952340;28;20659;-81
2022/05/20 05:43:47;;;;;;;9.65;5.80;;;;;;;21.12;52.67;102248.59;4949016;28;20158;-81
2022/05/20 05:46:16;;;;;;;6.55;5.20;;;;;;;21.12;52.53;102236.94;4949240;28;20351;-82
2022/05/20 05:48:42;;;;;;;9.43;5.88;;;;;;;21.11;52.58;102246.88;4949305;29;20250;-82
2022/05/20 05:51:10;;;;;;;9.15;6.18;;;;;;;21.32;52.68;102269.88;4949504;28;20051;-82
2022/05/20 05:53:37;;;;;;;7.88;5.85;;;;;;;21.40;52.96;102261.81;4952496;28;20057;-81
2022/05/20 05:56:06;;;;;;;9.68;5.47;;;;;;;21.47;52.35;102259.28;4952441;28;20051;-81
2022/05/20 05:58:33;;;;;;;11.75;5.35;;;;;;;21.15;52.77;102197.97;4952559;28;20055;-81
2022/05/20 06:01:01;;;;;;;8.68;5.65;;;;;;;20.80;52.38;102127.03;4951622;28;20134;-82
2022/05/20 06:03:28;;;;;;;8.68;5.60;;;;;;;21.03;52.61;102171.28;4969019;28;20268;-82
2022/05/20 06:05:55;;;;;;;9.57;6.38;;;;;;;21.04;52.55;102170.25;4952637;28;20050;-82
2022/05/20 06:08:23;;;;;;;14.27;6.45;;;;;;;21.61;52.31;102263.19;4952348;28;20097;-82
2022/05/20 06:10:52;;;;;;;12.25;5.68;;;;;;;21.66;52.09;102261.66;4969508;28;20059;-81
2022/05/20 06:13:31;;;;;;;8.48;6.40;;;;;;;21.21;52.17;102175.66;4969644;28;20468;-81
2022/05/20 06:15:58;;;;;;;8.48;5.53;;;;;;;21.48;52.18;102210.50;4970085;28;20079;-81
2022/05/20 06:18:26;;;;;;;6.88;5.55;;;;;;;21.90;52.06;102260.78;4952100;28;20043;-80
2022/05/20 06:20:53;;;;;;;7.63;5.93;;;;;;;21.98;52.55;102259.94;4969196;28;20075;-81
2022/05/20 06:23:20;;;;;;;9.30;6.05;;;;;;;21.80;52.37;102222.28;4952349;28;20599;-80
2022/05/20 06:25:47;;;;;;;7.93;5.65;;;;;;;22.14;52.33;102261.78;4952531;28;20043;-83
2022/05/20 06:28:37;;;;;;;12.55;5.80;;;;;;;21.68;52.54;102172.31;4954515;28;20557;-81
2022/05/20 06:31:05;;;;;;;7.85;4.97;;;;;;;22.29;52.68;102262.75;4952259;28;20150;-82
2022/05/20 06:33:32;;;;;;;12.38;5.50;;;;;;;21.91;52.33;102178.66;4952665;28;20081;-81
2022/05/20 06:41:41;;;;;;;7.38;6.18;;;;;;;21.93;50.91;102155.00;4913278;28;20108;-82
2022/05/20 06:44:08;;;;;;;8.98;5.95;;;;;;;22.74;50.50;102265.78;4988468;28;20042;-82
2022/05/20 06:46:35;;;;;;;10.18;5.57;;;;;;;22.74;51.29;102244.13;4985943;28;20058;-81
2022/05/20 06:49:03;;;;;;;13.20;6.90;;;;;;;22.92;50.32;102265.56;4971989;28;20426;-81
2022/05/20 06:51:34;;;;;;;6.95;5.28;;;;;;;22.79;50.17;102220.06;4968189;28;20066;-82
2022/05/20 06:54:05;;;;;;;8.60;5.25;;;;;;;21.96;49.97;102073.53;4959111;28;20054;-80
2022/05/20 06:56:33;;;;;;;14.50;5.80;;;;;;;22.97;49.91;102217.13;4959727;28;20065;-82
2022/05/20 06:59:01;;;;;;;13.95;5.38;;;;;;;23.28;49.89;102265.88;4972105;28;20057;-81
2022/05/20 07:01:29;;;;;;;8.10;5.47;;;;;;;23.21;49.92;102246.78;4951568;28;20416;-80
2022/05/20 07:03:57;;;;;;;5.13;4.63;;;;;;;22.95;49.62;102183.94;4949903;28;20453;-82
2022/05/20 07:06:26;;;;;;;11.55;5.60;;;;;;;23.01;49.68;102191.38;4951577;28;20048;-82
2022/05/20 07:09:02;;;;;;;12.02;5.53;;;;;;;23.57;49.51;102267.84;4952778;28;20062;-82
2022/05/20 07:11:35;;;;;;;10.55;6.05;;;;;;;23.42;50.31;102227.16;4951437;28;20130;-82
2022/05/20 07:14:02;;;;;;;8.60;5.63;;;;;;;23.04;49.84;102158.53;4951672;28;20057;-81
2022/05/20 07:16:30;;;;;;;10.23;6.55;;;;;;;22.39;49.99;102049.66;4947328;29;20043;-82
2022/05/20 07:18:57;;;;;;;10.80;6.45;;;;;;;23.75;49.99;102269.41;4947996;29;20187;-82
2022/05/20 07:21:36;;;;;;;7.53;5.93;;;;;;;23.65;49.93;102237.09;4943104;28;20046;-81
2022/05/20 07:24:16;;;;;;;10.75;6.20;;;;;;;23.86;49.99;102255.38;4951428;28;20299;-80
2022/05/20 07:26:44;;;;;;;7.18;5.32;;;;;;;22.63;49.31;102030.72;4951299;28;20066;-81
2022/05/20 07:29:13;;;;;;;7.93;5.65;;;;;;;23.37;48.98;102144.69;4950514;28;20489;-82
2022/05/20 07:31:40;;;;;;;8.00;5.85;;;;;;;24.18;48.15;102247.97;4968513;28;20372;-80
2022/05/20 07:34:09;;;;;;;9.52;5.10;;;;;;;23.75;48.07;102160.97;4952113;28;20046;-82
2022/05/20 07:36:36;;;;;;;5.18;4.78;;;;;;;24.16;48.25;102248.16;4969536;28;20479;-82
2022/05/20 07:39:04;;;;;;;8.25;4.53;;;;;;;24.17;48.71;102248.97;4952127;28;20057;-82
2022/05/20 07:41:35;;;;;;;8.85;5.00;;;;;;;24.12;48.31;102235.97;4970455;28;20050;-81
2022/05/20 07:44:03;;;;;;;5.68;5.10;;;;;;;24.30;47.94;102238.31;4952829;28;20306;-83
2022/05/20 07:46:31;;;;;;;7.15;5.32;;;;;;;24.18;47.40;102199.13;4951835;28;20070;-81
2022/05/20 07:48:59;;;;;;;11.07;5.32;;;;;;;24.45;47.29;102243.75;4978250;28;20386;-82
2022/05/20 07:51:28;;;;;;;8.18;6.03;;;;;;;24.46;47.96;102248.16;4952160;28;20055;-80
2022/05/20 07:54:09;;;;;;;;;;;;;;;24.49;48.03;102240.50;4969353;28;20049;-81
2022/05/20 07:56:41;;;;;;;11.68;5.75;;;;;;;24.60;48.55;102246.47;4952169;28;19937;-82
2022/05/20 07:59:16;;;;;;;14.63;5.57;;;;;;;24.68;47.26;102238.19;4952411;28;20093;-81
2022/05/20 08:01:48;;;;;;;8.70;5.25;;;;;;;24.80;46.67;102247.53;4950945;28;20500;-81
2022/05/20 08:07:09;;;;;;;9.10;5.22;;;;;;;24.67;45.83;102221.06;4967384;28;20535;-81
2022/05/20 08:09:40;;;;;;;5.43;4.93;;;;;;;24.98;45.69;102238.13;4950051;28;20558;-82
2022/05/20 08:12:07;;;;;;;7.28;4.80;;;;;;;24.77;46.08;102201.75;4968031;28;20433;-82
2022/05/20 08:14:45;;;;;;;5.93;5.03;;;;;;;25.04;46.30;102234.63;4952737;28;20062;-81
2022/05/20 08:17:12;;;;;;;12.45;5.60;;;;;;;25.05;46.05;102217.28;4951020;28;20393;-82
2022/05/20 08:19:39;;;;;;;6.20;5.03;;;;;;;25.34;45.68;102236.25;4950493;28;20554;-81
2022/05/20 08:22:07;;;;;;;10.63;5.10;;;;;;;25.53;45.15;102242.88;4950093;28;20051;-79
2022/05/20 08:24:34;;;;;;;7.78;4.60;;;;;;;25.51;45.20;102233.22;4950122;28;20141;-80
2022/05/20 08:27:02;;;;;;;10.73;5.22;;;;;;;25.44;44.68;102237.75;4949862;28;20122;-81
2022/05/20 08:29:33;;;;;;;5.90;4.78;;;;;;;25.23;45.22;102195.97;4967255;28;20372;-82
2022/05/20 08:32:00;;;;;;;10.55;5.13;;;;;;;25.44;45.45;102226.88;4950430;28;20093;-82
2022/05/20 08:34:27;;;;;;;8.77;4.80;;;;;;;25.54;45.31;102222.81;4949399;28;20517;-81
2022/05/20 08:36:53;;;;;;;8.93;4.88;;;;;;;25.58;45.30;102207.78;4950171;28;20449;-82
2022/05/20 08:39:20;;;;;;;6.10;5.07;;;;;;;25.47;45.75;102174.88;4951360;28;20121;-82
2022/05/20 08:41:52;;;;;;;13.23;5.18;;;;;;;25.86;45.86;102220.56;4950312;28;20129;-81
2022/05/20 08:44:21;;;;;;;10.93;5.10;;;;;;;25.84;45.92;102208.19;4949089;28;20505;-81
2022/05/20 08:46:48;;;;;;;11.68;5.60;;;;;;;25.91;45.43;102206.38;4950479;28;20077;-81
2022/05/20 08:49:21;;;;;;;5.68;4.78;;;;;;;25.74;45.54;102168.56;4950312;28;20086;-82
2022/05/20 08:51:53;;;;;;;11.15;4.82;;;;;;;25.57;44.17;102107.38;4968972;28;20105;-81
2022/05/20 08:54:20;;;;;;;6.57;4.55;;;;;;;26.06;44.13;102176.31;4952607;28;20050;-82
2022/05/20 08:56:47;;;;;;;10.88;4.45;;;;;;;26.12;43.66;102179.09;4971238;28;20094;-82
2022/05/20 08:59:20;;;;;;;5.75;4.53;;;;;;;26.50;43.48;102233.06;4953644;28;20280;-82
2022/05/20 09:01:50;;;;;;;4.78;4.20;;;;;;;26.47;43.32;102208.97;4951997;28;20137;-82
2022/05/20 09:04:22;;;;;;;7.53;4.53;;;;;;;26.52;44.79;102220.06;4950211;28;20497;-81
2022/05/20 09:07:06;;;;;;;;;;;;;;;26.78;43.35;102235.72;4950205;28;20072;-83
2022/05/20 09:09:54;;;;;;;4.60;4.05;;;;;;;26.90;42.72;102227.78;4950806;28;19922;-82
2022/05/20 09:12:39;;;;;;;8.00;4.63;;;;;;;26.59;44.29;102182.84;4968532;28;20479;-80
2022/05/20 09:18:29;;;;;;;5.85;5.03;;;;;;;27.12;44.30;102198.47;4967531;28;20593;-83
2022/05/20 09:20:59;;;;;;;12.20;4.97;;;;;;;27.47;43.95;102218.22;4949327;28;20070;-82
2022/05/20 09:23:26;;;;;;;16.45;5.43;;;;;;;27.37;44.05;102217.81;4967522;28;20051;-83
2022/05/20 09:26:10;;;;;;;9.77;4.88;;;;;;;27.42;44.34;102218.03;4950319;28;20101;-84
2022/05/20 09:28:46;;;;;;;10.15;5.15;;;;;;;26.97;44.14;102136.00;4950478;28;20209;-83
2022/05/20 09:31:31;;;;;;;6.75;4.60;;;;;;;27.52;44.23;102203.97;4949741;28;20359;-81
2022/05/20 09:34:23;;;;;;;7.88;5.18;;;;;;;27.61;43.65;102213.63;4949614;28;20413;-82
2022/05/20 09:37:00;;;;;;;;;;;;;;;27.62;43.49;102215.31;4950465;28;20047;-81
2022/05/20 09:39:53;;;;;;;8.00;4.93;;;;;;;27.67;43.63;102195.56;4965922;28;19949;-82
2022/05/20 09:42:21;;;;;;;10.35;4.47;;;;;;;27.89;42.76;102207.09;4965461;28;20133;-81
2022/05/20 09:44:55;;;;;;;10.48;5.25;;;;;;;28.06;43.14;102197.41;4967633;28;20058;-82
2022/05/20 09:47:48;;;;;;;10.57;5.32;;;;;;;28.21;42.82;102196.31;4947406;28;20073;-83
2022/05/20 09:50:34;;;;;;;9.20;5.13;;;;;;;27.49;42.39;102065.31;4946555;28;20066;-83
2022/05/20 09:53:10;;;;;;;11.57;5.45;;;;;;;28.36;42.86;102176.94;4957051;28;20055;-80
2022/05/20 09:55:46;;;;;;;9.10;5.20;;;;;;;28.46;42.06;102164.50;4950292;28;20081;-81
2022/05/20 09:58:18;;;;;;;10.18;5.15;;;;;;;28.79;40.70;102181.75;4953193;28;20122;-81
2022/05/20 10:01:03;;;;;;;7.30;4.77;;;;;;;28.73;40.96;102157.00;4953810;28;20043;-82
2022/05/20 10:03:45;;;;;;;8.30;5.07;;;;;;;28.84;40.92;102184.69;4951343;28;20310;-82
2022/05/20 10:06:35;;;;;;;9.05;5.25;;;;;;;28.85;41.04;102169.97;4952690;28;20445;-81
2022/05/20 10:09:45;;;;;;;7.15;5.05;;;;;;;28.92;40.35;102174.31;4953995;28;20070;-80
2022/05/20 10:12:20;;;;;;;5.82;4.97;;;;;;;29.04;40.49;102151.75;4954457;28;20047;-80
2022/05/20 10:15:07;;;;;;;10.57;5.47;;;;;;;28.39;40.39;102046.22;4954903;28;20055;-81
2022/05/20 10:18:10;;;;;;;8.75;5.03;;;;;;;29.03;39.82;102129.03;4953489;28;20453;-81
2022/05/20 10:20:44;;;;;;;6.55;5.63;;;;;;;29.28;39.79;102120.84;4933103;28;20567;-82
2022/05/20 10:23:37;;;;;;;9.80;6.03;;;;;;;29.53;39.67;102137.22;4954366;28;20047;-81
2022/05/20 10:26:09;;;;;;;6.22;5.63;;;;;;;29.59;39.71;102132.75;4957519;28;20054;-80
2022/05/20 10:34:45;;;;;;;8.90;5.65;;;;;;;30.14;39.25;102140.97;4973004;28;20265;-81
2022/05/20 10:37:35;;;;;;;8.65;5.65;;;;;;;30.28;38.72;102143.59;4951981;28;20213;-83
2022/05/20 10:40:33;;;;;;;9.60;5.00;;;;;;;29.88;38.95;102049.09;4969747;28;20061;-81
2022/05/20 10:43:26;;;;;;;12.88;6.38;;;;;;;30.60;38.36;102149.66;4961942;28;20057;-82
2022/05/20 10:48:56;;;;;;;7.70;6.13;;;;;;;31.08;38.04;102135.03;4951924;29;20258;-82
2022/05/20 10:51:44;;;;;;;6.63;5.97;;;;;;;31.08;37.78;102140.50;4934246;29;20290;-82
2022/05/20 10:54:43;;;;;;;10.43;6.53;;;;;;;31.11;37.63;102129.06;4964159;28;20066;-81
2022/05/20 10:57:37;;;;;;;11.20;6.35;;;;;;;31.17;37.46;102128.13;4951053;28;20062;-82
2022/05/20 11:00:08;;;;;;;12.15;6.55;;;;;;;31.34;37.38;102110.94;4979856;28;20183;-82
2022/05/20 11:03:00;;;;;;;11.02;6.80;;;;;;;31.20;36.17;102066.47;4971890;28;20059;-80
2022/05/20 11:05:35;;;;;;;8.90;7.15;;;;;;;31.48;36.96;102079.47;4949664;28;20490;-81
2022/05/20 11:08:16;;;;;;;9.90;5.45;;;;;;;31.73;36.88;102101.97;4945939;28;20067;-81
2022/05/20 11:11:24;;;;;;;7.60;6.80;;;;;;;31.90;36.94;102114.97;4942311;28;20109;-82
2022/05/20 11:14:04;;;;;;;10.02;6.30;;;;;;;31.43;36.40;102050.00;4959708;28;20054;-82
2022/05/20 11:16:37;;;;;;;6.97;5.97;;;;;;;31.88;36.80;102090.47;4942203;28;20141;-82
2022/05/20 11:19:13;;;;;;;7.38;6.28;;;;;;;32.21;36.36;102093.59;4944794;28;20047;-83
2022/05/20 11:22:10;;;;;;;8.38;6.25;;;;;;;32.51;35.15;102093.38;4966589;28;20047;-82
2022/05/20 11:24:54;;;;;;;5.90;5.30;;;;;;;32.57;36.06;102092.38;4962987;28;20164;-81
2022/05/20 11:27:36;;;;;;;13.23;7.15;;;;;;;32.79;35.07;102086.97;4951517;28;20058;-82
2022/05/20 11:30:27;;;;;;;11.93;7.38;;;;;;;32.48;34.59;102027.88;4952100;28;20054;-81
2022/05/20 11:33:19;;;;;;;13.23;6.13;;;;;;;32.64;34.84;102075.72;4952316;28;20051;-82
2022/05/20 11:36:15;;;;;;;12.20;5.47;;;;;;;32.80;34.85;102074.91;4968924;28;20047;-81
2022/05/20 11:39:03;;;;;;;8.30;6.03;;;;;;;32.91;34.41;102071.22;4951582;28;20716;-82
2022/05/20 11:42:11;;;;;;;10.07;6.15;;;;;;;32.88;33.91;102063.47;4950495;28;20348;-82
2022/05/20 11:45:10;;;;;;;10.40;6.20;;;;;;;33.12;33.50;102060.56;4948597;28;20050;-82
2022/05/20 11:47:52;;;;;;;7.40;5.93;;;;;;;33.33;33.56;102062.53;4949238;28;20055;-82
2022/05/20 11:50:33;;;;;;;6.68;5.97;;;;;;;33.49;33.97;102070.97;4949107;28;20047;-82
2022/05/20 11:53:41;;;;;;;6.53;5.82;;;;;;;33.69;33.46;102065.75;4950057;28;20746;-81
2022/05/20 11:56:16;;;;;;;7.00;6.03;;;;;;;33.54;32.58;102030.56;4922045;28;20058;-81
2022/05/20 11:59:26;;;;;;;7.65;5.70;;;;;;;33.73;32.22;102061.41;4951327;28;20051;-82
2022/05/20 12:01:57;;;;;;;6.53;5.53;;;;;;;33.67;32.50;102004.63;4965436;28;20058;-82
2022/05/20 12:04:27;;;;;;;7.22;5.47;;;;;;;33.65;32.30;101981.19;4951427;28;20054;-78
2022/05/20 12:07:04;;;;;;;13.18;6.55;;;;;;;34.17;31.98;102044.84;4951260;28;20107;-82
2022/05/20 12:09:44;;;;;;;7.90;5.30;;;;;;;34.32;31.56;102024.84;4951875;28;20061;-81
2022/05/20 12:12:16;;;;;;;8.88;5.03;;;;;;;34.46;31.44;102028.84;4951733;28;20058;-83
2022/05/20 12:15:11;;;;;;;6.25;5.43;;;;;;;34.75;30.64;102036.00;4951587;28;20054;-82
2022/05/20 12:17:45;;;;;;;6.97;4.45;;;;;;;34.51;30.09;101975.66;4968650;28;20062;-81
2022/05/20 12:26:03;;;;;;;7.97;5.13;;;;;;;34.79;29.92;101974.53;4968098;28;20051;-81
2022/05/20 12:28:32;;;;;;;8.25;4.88;;;;;;;34.93;29.82;101985.94;4935766;28;20117;-82
2022/05/20 12:31:24;;;;;;;5.13;4.63;;;;;;;34.41;29.71;101893.72;4951167;28;20054;-83
2022/05/20 12:34:00;;;;;;;6.43;4.70;;;;;;;35.49;29.69;102013.81;4951485;28;20089;-83
2022/05/20 12:36:30;;;;;;;5.60;4.63;;;;;;;35.62;29.45;102006.16;4951382;28;20050;-82
2022/05/20 12:39:09;;;;;;;6.77;5.03;;;;;;;35.78;29.83;101998.72;4968689;28;20559;-83